sensor_id;sensor_type;location;lat;lon;timestamp;P1;durP1;ratioP1;P2;durP2;ratioP2
82705;SDS011;72428;41.978;21.464;2023-09-08T00:01:50;13.35;;;8.18;;
82705;SDS011;72428;41.978;21.464;2023-09-08T00:04:17;17.33;;;9.90;;
82705;SDS011;72428;41.978;21.464;2023-09-08T00:06:44;13.27;;;8.38;;
82705;SDS011;72428;41.978;21.464;2023-09-08T00:09:11;18.90;;;8.05;;
82705;SDS011;72428;41.978;21.464;2023-09-08T00:11:37;13.85;;;7.85;;
82705;SDS011;72428;41.978;21.464;2023-09-08T00:14:03;13.85;;;8.90;;
82705;SDS011;72428;41.978;21.464;2023-09-08T00:16:29;13.98;;;8.05;;
82705;SDS011;72428;41.978;21.464;2023-09-08T00:18:55;13.00;;;7.32;;
82705;SDS011;72428;41.978;21.464;2023-09-08T00:21:25;12.75;;;7.05;;
82705;SDS011;72428;41.978;21.464;2023-09-08T00:23:54;14.40;;;8.65;;
82705;SDS011;72428;41.978;21.464;2023-09-08T00:28:47;12.48;;;8.32;;
82705;SDS011;72428;41.978;21.464;2023-09-08T00:31:13;11.57;;;8.70;;
82705;SDS011;72428;41.978;21.464;2023-09-08T00:33:40;11.45;;;7.78;;
82705;SDS011;72428;41.978;21.464;2023-09-08T00:36:09;10.73;;;7.88;;
82705;SDS011;72428;41.978;21.464;2023-09-08T00:38:35;13.13;;;8.23;;
82705;SDS011;72428;41.978;21.464;2023-09-08T00:41:01;11.30;;;7.70;;
82705;SDS011;72428;41.978;21.464;2023-09-08T00:43:27;13.48;;;8.32;;
82705;SDS011;72428;41.978;21.464;2023-09-08T00:45:53;11.27;;;7.63;;
82705;SDS011;72428;41.978;21.464;2023-09-08T00:48:20;12.00;;;7.68;;
82705;SDS011;72428;41.978;21.464;2023-09-08T00:50:46;12.50;;;7.55;;
82705;SDS011;72428;41.978;21.464;2023-09-08T00:53:13;11.77;;;8.07;;
82705;SDS011;72428;41.978;21.464;2023-09-08T00:55:39;13.15;;;8.48;;
82705;SDS011;72428;41.978;21.464;2023-09-08T00:58:06;13.60;;;7.95;;
82705;SDS011;72428;41.978;21.464;2023-09-08T01:00:32;14.48;;;8.20;;
82705;SDS011;72428;41.978;21.464;2023-09-08T01:02:59;15.75;;;7.97;;
82705;SDS011;72428;41.978;21.464;2023-09-08T01:05:25;13.43;;;8.23;;
82705;SDS011;72428;41.978;21.464;2023-09-08T01:07:51;16.88;;;9.23;;
82705;SDS011;72428;41.978;21.464;2023-09-08T01:10:20;16.35;;;8.75;;
82705;SDS011;72428;41.978;21.464;2023-09-08T01:12:46;14.60;;;8.50;;
82705;SDS011;72428;41.978;21.464;2023-09-08T01:15:13;13.48;;;8.80;;
82705;SDS011;72428;41.978;21.464;2023-09-08T01:17:39;15.60;;;7.70;;
82705;SDS011;72428;41.978;21.464;2023-09-08T01:25:23;12.85;;;8.38;;
82705;SDS011;72428;41.978;21.464;2023-09-08T01:27:50;16.73;;;8.25;;
82705;SDS011;72428;41.978;21.464;2023-09-08T01:30:16;17.23;;;9.65;;
82705;SDS011;72428;41.978;21.464;2023-09-08T01:32:43;13.48;;;8.15;;
82705;SDS011;72428;41.978;21.464;2023-09-08T01:35:09;16.83;;;9.13;;
82705;SDS011;72428;41.978;21.464;2023-09-08T01:37:39;14.65;;;7.63;;
82705;SDS011;72428;41.978;21.464;2023-09-08T01:40:06;14.10;;;8.63;;
82705;SDS011;72428;41.978;21.464;2023-09-08T01:42:32;11.15;;;8.60;;
82705;SDS011;72428;41.978;21.464;2023-09-08T01:44:58;12.60;;;8.27;;
82705;SDS011;72428;41.978;21.464;2023-09-08T01:47:24;11.25;;;8.05;;
82705;SDS011;72428;41.978;21.464;2023-09-08T01:49:50;13.10;;;8.38;;
82705;SDS011;72428;41.978;21.464;2023-09-08T01:52:16;14.13;;;8.93;;
82705;SDS011;72428;41.978;21.464;2023-09-08T01:54:42;13.32;;;8.60;;
82705;SDS011;72428;41.978;21.464;2023-09-08T01:57:08;11.73;;;8.43;;
82705;SDS011;72428;41.978;21.464;2023-09-08T01:59:34;13.95;;;8.27;;
82705;SDS011;72428;41.978;21.464;2023-09-08T02:02:02;12.55;;;7.85;;
82705;SDS011;72428;41.978;21.464;2023-09-08T02:04:28;14.45;;;8.75;;
82705;SDS011;72428;41.978;21.464;2023-09-08T02:06:54;16.00;;;8.85;;
82705;SDS011;72428;41.978;21.464;2023-09-08T02:09:20;14.98;;;8.40;;
82705;SDS011;72428;41.978;21.464;2023-09-08T02:11:46;12.55;;;7.75;;
82705;SDS011;72428;41.978;21.464;2023-09-08T02:14:12;10.57;;;7.65;;
82705;SDS011;72428;41.978;21.464;2023-09-08T02:16:38;12.48;;;8.63;;
82705;SDS011;72428;41.978;21.464;2023-09-08T02:19:04;14.30;;;8.38;;
82705;SDS011;72428;41.978;21.464;2023-09-08T02:21:31;13.93;;;9.18;;
82705;SDS011;72428;41.978;21.464;2023-09-08T02:23:57;12.43;;;8.05;;
82705;SDS011;72428;41.978;21.464;2023-09-08T02:26:23;16.98;;;8.75;;
82705;SDS011;72428;41.978;21.464;2023-09-08T02:28:51;14.40;;;8.07;;
82705;SDS011;72428;41.978;21.464;2023-09-08T02:31:17;13.75;;;9.25;;
82705;SDS011;72428;41.978;21.464;2023-09-08T02:33:43;15.18;;;7.93;;
82705;SDS011;72428;41.978;21.464;2023-09-08T02:36:09;12.88;;;7.88;;
82705;SDS011;72428;41.978;21.464;2023-09-08T02:38:35;13.32;;;8.48;;
82705;SDS011;72428;41.978;21.464;2023-09-08T02:41:02;12.20;;;8.40;;
82705;SDS011;72428;41.978;21.464;2023-09-08T02:43:28;14.60;;;9.40;;
82705;SDS011;72428;41.978;21.464;2023-09-08T02:45:54;12.10;;;8.70;;
82705;SDS011;72428;41.978;21.464;2023-09-08T02:48:20;12.45;;;8.00;;
82705;SDS011;72428;41.978;21.464;2023-09-08T02:50:47;13.02;;;7.78;;
82705;SDS011;72428;41.978;21.464;2023-09-08T02:53:13;13.30;;;8.35;;
82705;SDS011;72428;41.978;21.464;2023-09-08T02:55:39;15.93;;;8.32;;
82705;SDS011;72428;41.978;21.464;2023-09-08T02:58:05;13.45;;;7.97;;
82705;SDS011;72428;41.978;21.464;2023-09-08T03:00:31;10.65;;;7.80;;
82705;SDS011;72428;41.978;21.464;2023-09-08T03:02:57;13.90;;;7.93;;
82705;SDS011;72428;41.978;21.464;2023-09-08T03:05:23;12.32;;;9.00;;
82705;SDS011;72428;41.978;21.464;2023-09-08T03:07:49;12.27;;;8.23;;
82705;SDS011;72428;41.978;21.464;2023-09-08T03:10:15;15.52;;;8.85;;
82705;SDS011;72428;41.978;21.464;2023-09-08T03:12:41;14.55;;;8.23;;
82705;SDS011;72428;41.978;21.464;2023-09-08T03:15:08;13.15;;;8.05;;
82705;SDS011;72428;41.978;21.464;2023-09-08T03:17:34;11.35;;;7.85;;
82705;SDS011;72428;41.978;21.464;2023-09-08T03:20:00;12.95;;;8.23;;
82705;SDS011;72428;41.978;21.464;2023-09-08T03:22:26;15.93;;;8.73;;
82705;SDS011;72428;41.978;21.464;2023-09-08T03:24:52;13.43;;;8.40;;
82705;SDS011;72428;41.978;21.464;2023-09-08T03:27:18;13.48;;;8.15;;
82705;SDS011;72428;41.978;21.464;2023-09-08T03:29:45;11.10;;;8.10;;
82705;SDS011;72428;41.978;21.464;2023-09-08T03:32:11;14.48;;;8.68;;
82705;SDS011;72428;41.978;21.464;2023-09-08T03:34:37;13.77;;;8.30;;
82705;SDS011;72428;41.978;21.464;2023-09-08T03:37:04;14.70;;;8.43;;
82705;SDS011;72428;41.978;21.464;2023-09-08T03:39:30;17.30;;;8.50;;
82705;SDS011;72428;41.978;21.464;2023-09-08T03:41:56;14.85;;;8.57;;
82705;SDS011;72428;41.978;21.464;2023-09-08T03:44:23;16.75;;;8.48;;
82705;SDS011;72428;41.978;21.464;2023-09-08T03:46:49;17.70;;;8.80;;
82705;SDS011;72428;41.978;21.464;2023-09-08T03:49:15;13.68;;;8.40;;
82705;SDS011;72428;41.978;21.464;2023-09-08T03:51:41;12.05;;;8.07;;
82705;SDS011;72428;41.978;21.464;2023-09-08T03:54:07;17.05;;;9.10;;
82705;SDS011;72428;41.978;21.464;2023-09-08T03:56:33;11.85;;;7.97;;
82705;SDS011;72428;41.978;21.464;2023-09-08T03:58:59;12.18;;;8.20;;
82705;SDS011;72428;41.978;21.464;2023-09-08T04:01:25;11.57;;;7.82;;
82705;SDS011;72428;41.978;21.464;2023-09-08T04:03:51;19.23;;;8.73;;
82705;SDS011;72428;41.978;21.464;2023-09-08T04:06:18;14.63;;;8.90;;
82705;SDS011;72428;41.978;21.464;2023-09-08T04:08:44;12.77;;;8.82;;
82705;SDS011;72428;41.978;21.464;2023-09-08T04:11:10;16.40;;;9.35;;
82705;SDS011;72428;41.978;21.464;2023-09-08T04:13:36;13.35;;;8.13;;
82705;SDS011;72428;41.978;21.464;2023-09-08T04:16:02;13.70;;;9.10;;
82705;SDS011;72428;41.978;21.464;2023-09-08T04:18:28;15.82;;;9.32;;
82705;SDS011;72428;41.978;21.464;2023-09-08T04:20:54;16.20;;;9.15;;
82705;SDS011;72428;41.978;21.464;2023-09-08T04:23:20;14.93;;;9.23;;
82705;SDS011;72428;41.978;21.464;2023-09-08T04:25:46;13.90;;;8.80;;
82705;SDS011;72428;41.978;21.464;2023-09-08T04:28:12;13.77;;;8.77;;
82705;SDS011;72428;41.978;21.464;2023-09-08T04:30:38;12.13;;;8.38;;
82705;SDS011;72428;41.978;21.464;2023-09-08T04:33:04;13.88;;;8.30;;
82705;SDS011;72428;41.978;21.464;2023-09-08T04:35:30;15.05;;;9.25;;
82705;SDS011;72428;41.978;21.464;2023-09-08T04:37:57;16.48;;;9.10;;
82705;SDS011;72428;41.978;21.464;2023-09-08T04:40:23;12.52;;;8.85;;
82705;SDS011;72428;41.978;21.464;2023-09-08T04:42:49;14.95;;;9.40;;
82705;SDS011;72428;41.978;21.464;2023-09-08T04:45:15;13.05;;;8.05;;
82705;SDS011;72428;41.978;21.464;2023-09-08T04:47:41;18.73;;;8.88;;
82705;SDS011;72428;41.978;21.464;2023-09-08T04:50:07;13.77;;;9.07;;
82705;SDS011;72428;41.978;21.464;2023-09-08T04:52:33;17.75;;;9.73;;
82705;SDS011;72428;41.978;21.464;2023-09-08T04:54:59;18.48;;;9.75;;
82705;SDS011;72428;41.978;21.464;2023-09-08T04:57:25;16.15;;;9.25;;
82705;SDS011;72428;41.978;21.464;2023-09-08T04:59:51;17.27;;;9.73;;
82705;SDS011;72428;41.978;21.464;2023-09-08T05:02:17;21.75;;;10.05;;
82705;SDS011;72428;41.978;21.464;2023-09-08T05:04:44;15.68;;;10.32;;
82705;SDS011;72428;41.978;21.464;2023-09-08T05:07:10;19.13;;;10.20;;
82705;SDS011;72428;41.978;21.464;2023-09-08T05:09:38;19.45;;;10.48;;
82705;SDS011;72428;41.978;21.464;2023-09-08T05:12:04;14.40;;;10.57;;
82705;SDS011;72428;41.978;21.464;2023-09-08T05:14:30;17.85;;;9.93;;
82705;SDS011;72428;41.978;21.464;2023-09-08T05:16:56;15.63;;;10.25;;
82705;SDS011;72428;41.978;21.464;2023-09-08T05:19:22;17.60;;;10.32;;
82705;SDS011;72428;41.978;21.464;2023-09-08T05:21:53;14.70;;;10.88;;
82705;SDS011;72428;41.978;21.464;2023-09-08T05:24:19;18.40;;;11.07;;
82705;SDS011;72428;41.978;21.464;2023-09-08T05:26:46;18.83;;;11.25;;
82705;SDS011;72428;41.978;21.464;2023-09-08T05:29:12;17.02;;;11.27;;
82705;SDS011;72428;41.978;21.464;2023-09-08T05:31:38;18.83;;;11.40;;
82705;SDS011;72428;41.978;21.464;2023-09-08T05:34:04;15.38;;;11.38;;
82705;SDS011;72428;41.978;21.464;2023-09-08T05:36:30;19.20;;;12.00;;
82705;SDS011;72428;41.978;21.464;2023-09-08T05:38:58;21.02;;;11.70;;
82705;SDS011;72428;41.978;21.464;2023-09-08T05:41:24;16.65;;;10.80;;
82705;SDS011;72428;41.978;21.464;2023-09-08T05:43:50;15.80;;;11.10;;
82705;SDS011;72428;41.978;21.464;2023-09-08T05:46:16;20.33;;;11.30;;
82705;SDS011;72428;41.978;21.464;2023-09-08T05:48:43;15.43;;;11.80;;
82705;SDS011;72428;41.978;21.464;2023-09-08T05:51:09;17.05;;;12.48;;
82705;SDS011;72428;41.978;21.464;2023-09-08T05:53:35;14.10;;;10.70;;
82705;SDS011;72428;41.978;21.464;2023-09-08T05:56:04;17.58;;;10.45;;
82705;SDS011;72428;41.978;21.464;2023-09-08T05:58:30;14.48;;;9.63;;
82705;SDS011;72428;41.978;21.464;2023-09-08T06:00:56;17.75;;;10.05;;
82705;SDS011;72428;41.978;21.464;2023-09-08T06:03:22;15.90;;;11.32;;
82705;SDS011;72428;41.978;21.464;2023-09-08T06:05:48;19.20;;;12.15;;
82705;SDS011;72428;41.978;21.464;2023-09-08T06:08:15;20.42;;;13.45;;
82705;SDS011;72428;41.978;21.464;2023-09-08T06:10:41;18.75;;;12.38;;
82705;SDS011;72428;41.978;21.464;2023-09-08T06:13:07;17.45;;;11.68;;
82705;SDS011;72428;41.978;21.464;2023-09-08T06:15:33;17.38;;;10.90;;
82705;SDS011;72428;41.978;21.464;2023-09-08T06:17:59;18.70;;;10.85;;
82705;SDS011;72428;41.978;21.464;2023-09-08T06:20:25;17.35;;;11.77;;
82705;SDS011;72428;41.978;21.464;2023-09-08T06:22:52;17.75;;;11.77;;
82705;SDS011;72428;41.978;21.464;2023-09-08T06:25:18;18.38;;;11.68;;
82705;SDS011;72428;41.978;21.464;2023-09-08T06:27:44;17.63;;;11.55;;
82705;SDS011;72428;41.978;21.464;2023-09-08T06:30:10;18.00;;;11.43;;
82705;SDS011;72428;41.978;21.464;2023-09-08T06:32:38;19.23;;;10.93;;
82705;SDS011;72428;41.978;21.464;2023-09-08T06:35:04;15.95;;;11.68;;
82705;SDS011;72428;41.978;21.464;2023-09-08T06:37:37;14.52;;;10.55;;
82705;SDS011;72428;41.978;21.464;2023-09-08T06:40:03;14.73;;;10.52;;
82705;SDS011;72428;41.978;21.464;2023-09-08T06:42:30;16.00;;;10.43;;
82705;SDS011;72428;41.978;21.464;2023-09-08T06:44:56;15.95;;;10.25;;
82705;SDS011;72428;41.978;21.464;2023-09-08T06:47:22;17.10;;;10.60;;
82705;SDS011;72428;41.978;21.464;2023-09-08T06:49:48;16.35;;;10.98;;
82705;SDS011;72428;41.978;21.464;2023-09-08T06:52:14;18.67;;;10.95;;
82705;SDS011;72428;41.978;21.464;2023-09-08T06:54:40;15.00;;;9.63;;
82705;SDS011;72428;41.978;21.464;2023-09-08T06:57:06;19.08;;;10.88;;
82705;SDS011;72428;41.978;21.464;2023-09-08T06:59:32;20.90;;;10.95;;
82705;SDS011;72428;41.978;21.464;2023-09-08T07:01:58;19.00;;;10.23;;
82705;SDS011;72428;41.978;21.464;2023-09-08T07:04:24;20.40;;;11.60;;
82705;SDS011;72428;41.978;21.464;2023-09-08T07:06:51;17.10;;;10.82;;
82705;SDS011;72428;41.978;21.464;2023-09-08T07:09:19;15.77;;;11.25;;
82705;SDS011;72428;41.978;21.464;2023-09-08T07:11:45;19.40;;;10.45;;
82705;SDS011;72428;41.978;21.464;2023-09-08T07:14:12;21.35;;;11.98;;
82705;SDS011;72428;41.978;21.464;2023-09-08T07:16:38;18.52;;;10.77;;
82705;SDS011;72428;41.978;21.464;2023-09-08T07:19:04;16.85;;;10.95;;
82705;SDS011;72428;41.978;21.464;2023-09-08T07:21:30;17.42;;;10.88;;
82705;SDS011;72428;41.978;21.464;2023-09-08T07:23:56;18.13;;;10.20;;
82705;SDS011;72428;41.978;21.464;2023-09-08T07:26:23;16.20;;;10.02;;
82705;SDS011;72428;41.978;21.464;2023-09-08T07:28:49;17.05;;;10.70;;
82705;SDS011;72428;41.978;21.464;2023-09-08T07:31:15;19.23;;;10.73;;
82705;SDS011;72428;41.978;21.464;2023-09-08T07:33:41;19.17;;;10.65;;
82705;SDS011;72428;41.978;21.464;2023-09-08T07:36:08;15.48;;;10.63;;
82705;SDS011;72428;41.978;21.464;2023-09-08T07:38:34;17.95;;;10.98;;
82705;SDS011;72428;41.978;21.464;2023-09-08T07:41:01;16.65;;;10.32;;
82705;SDS011;72428;41.978;21.464;2023-09-08T07:43:28;16.65;;;10.73;;
82705;SDS011;72428;41.978;21.464;2023-09-08T07:45:54;13.90;;;9.88;;
82705;SDS011;72428;41.978;21.464;2023-09-08T07:48:20;14.73;;;10.15;;
82705;SDS011;72428;41.978;21.464;2023-09-08T07:50:46;14.45;;;9.88;;
82705;SDS011;72428;41.978;21.464;2023-09-08T07:53:12;16.80;;;10.52;;
82705;SDS011;72428;41.978;21.464;2023-09-08T07:55:38;18.10;;;10.25;;
82705;SDS011;72428;41.978;21.464;2023-09-08T07:58:04;16.25;;;10.88;;
82705;SDS011;72428;41.978;21.464;2023-09-08T08:00:30;20.25;;;11.93;;
82705;SDS011;72428;41.978;21.464;2023-09-08T08:02:57;16.80;;;10.77;;
82705;SDS011;72428;41.978;21.464;2023-09-08T08:05:24;17.13;;;10.30;;
82705;SDS011;72428;41.978;21.464;2023-09-08T08:07:50;15.43;;;9.77;;
82705;SDS011;72428;41.978;21.464;2023-09-08T08:10:16;13.98;;;9.50;;
82705;SDS011;72428;41.978;21.464;2023-09-08T08:12:42;16.38;;;9.30;;
82705;SDS011;72428;41.978;21.464;2023-09-08T08:15:09;13.35;;;9.07;;
82705;SDS011;72428;41.978;21.464;2023-09-08T08:17:36;13.80;;;9.05;;
82705;SDS011;72428;41.978;21.464;2023-09-08T08:20:03;14.52;;;9.20;;
82705;SDS011;72428;41.978;21.464;2023-09-08T08:22:34;22.15;;;9.77;;
82705;SDS011;72428;41.978;21.464;2023-09-08T08:25:00;14.30;;;9.15;;
82705;SDS011;72428;41.978;21.464;2023-09-08T08:27:26;15.40;;;9.05;;
82705;SDS011;72428;41.978;21.464;2023-09-08T08:29:52;16.67;;;9.25;;
82705;SDS011;72428;41.978;21.464;2023-09-08T08:32:18;14.57;;;9.20;;
82705;SDS011;72428;41.978;21.464;2023-09-08T08:34:45;16.40;;;9.20;;
82705;SDS011;72428;41.978;21.464;2023-09-08T08:37:11;14.10;;;8.57;;
82705;SDS011;72428;41.978;21.464;2023-09-08T08:39:37;12.85;;;7.43;;
82705;SDS011;72428;41.978;21.464;2023-09-08T08:42:07;12.43;;;7.80;;
82705;SDS011;72428;41.978;21.464;2023-09-08T08:44:33;15.40;;;7.13;;
82705;SDS011;72428;41.978;21.464;2023-09-08T08:47:00;11.77;;;6.75;;
82705;SDS011;72428;41.978;21.464;2023-09-08T08:49:28;13.38;;;7.10;;
82705;SDS011;72428;41.978;21.464;2023-09-08T08:51:56;11.60;;;7.25;;
82705;SDS011;72428;41.978;21.464;2023-09-08T08:54:24;10.48;;;7.03;;
82705;SDS011;72428;41.978;21.464;2023-09-08T08:56:50;15.15;;;6.57;;
82705;SDS011;72428;41.978;21.464;2023-09-08T08:59:16;12.45;;;7.07;;
82705;SDS011;72428;41.978;21.464;2023-09-08T09:01:42;10.52;;;6.60;;
82705;SDS011;72428;41.978;21.464;2023-09-08T09:04:09;13.38;;;7.60;;
82705;SDS011;72428;41.978;21.464;2023-09-08T09:06:36;15.75;;;7.95;;
82705;SDS011;72428;41.978;21.464;2023-09-08T09:09:02;11.70;;;6.47;;
82705;SDS011;72428;41.978;21.464;2023-09-08T09:11:29;10.57;;;7.13;;
82705;SDS011;72428;41.978;21.464;2023-09-08T09:13:56;10.85;;;7.40;;
82705;SDS011;72428;41.978;21.464;2023-09-08T09:16:23;15.27;;;7.47;;
82705;SDS011;72428;41.978;21.464;2023-09-08T09:18:58;10.60;;;7.10;;
82705;SDS011;72428;41.978;21.464;2023-09-08T09:21:47;15.75;;;7.40;;
82705;SDS011;72428;41.978;21.464;2023-09-08T09:24:16;11.77;;;6.78;;
82705;SDS011;72428;41.978;21.464;2023-09-08T09:29:12;13.63;;;6.70;;
82705;SDS011;72428;41.978;21.464;2023-09-08T09:34:24;11.10;;;6.57;;
82705;SDS011;72428;41.978;21.464;2023-09-08T09:36:52;12.68;;;6.47;;
82705;SDS011;72428;41.978;21.464;2023-09-08T09:39:22;11.68;;;6.70;;
82705;SDS011;72428;41.978;21.464;2023-09-08T09:41:49;11.07;;;6.50;;
82705;SDS011;72428;41.978;21.464;2023-09-08T09:44:18;10.10;;;6.28;;
82705;SDS011;72428;41.978;21.464;2023-09-08T09:46:45;14.40;;;7.20;;
82705;SDS011;72428;41.978;21.464;2023-09-08T09:49:12;13.75;;;6.70;;
82705;SDS011;72428;41.978;21.464;2023-09-08T09:51:45;10.70;;;6.95;;
82705;SDS011;72428;41.978;21.464;2023-09-08T09:54:12;12.93;;;6.90;;
82705;SDS011;72428;41.978;21.464;2023-09-08T09:56:39;9.55;;;5.85;;
82705;SDS011;72428;41.978;21.464;2023-09-08T09:59:07;10.40;;;6.57;;
82705;SDS011;72428;41.978;21.464;2023-09-08T10:01:33;10.57;;;6.32;;
82705;SDS011;72428;41.978;21.464;2023-09-08T10:04:00;13.75;;;6.75;;
82705;SDS011;72428;41.978;21.464;2023-09-08T10:06:28;11.13;;;6.43;;
82705;SDS011;72428;41.978;21.464;2023-09-08T10:08:55;11.57;;;6.53;;
82705;SDS011;72428;41.978;21.464;2023-09-08T10:11:21;12.13;;;6.43;;
82705;SDS011;72428;41.978;21.464;2023-09-08T10:13:50;16.15;;;6.60;;
82705;SDS011;72428;41.978;21.464;2023-09-08T10:16:17;11.38;;;7.03;;
82705;SDS011;72428;41.978;21.464;2023-09-08T10:18:45;14.10;;;7.28;;
82705;SDS011;72428;41.978;21.464;2023-09-08T10:21:12;16.63;;;6.38;;
82705;SDS011;72428;41.978;21.464;2023-09-08T10:23:40;10.38;;;6.35;;
82705;SDS011;72428;41.978;21.464;2023-09-08T10:26:11;13.48;;;6.40;;
82705;SDS011;72428;41.978;21.464;2023-09-08T10:28:37;9.30;;;6.00;;
82705;SDS011;72428;41.978;21.464;2023-09-08T10:31:04;11.77;;;5.78;;
82705;SDS011;72428;41.978;21.464;2023-09-08T10:33:30;12.95;;;6.53;;
82705;SDS011;72428;41.978;21.464;2023-09-08T10:35:57;10.10;;;6.10;;
82705;SDS011;72428;41.978;21.464;2023-09-08T10:38:28;9.85;;;5.95;;
82705;SDS011;72428;41.978;21.464;2023-09-08T10:43:39;10.60;;;6.32;;
82705;SDS011;72428;41.978;21.464;2023-09-08T10:46:09;16.50;;;6.30;;
82705;SDS011;72428;41.978;21.464;2023-09-08T10:48:42;9.43;;;6.28;;
82705;SDS011;72428;41.978;21.464;2023-09-08T10:51:18;12.70;;;6.60;;
82705;SDS011;72428;41.978;21.464;2023-09-08T10:53:47;10.13;;;5.68;;
82705;SDS011;72428;41.978;21.464;2023-09-08T10:56:14;9.68;;;5.57;;
82705;SDS011;72428;41.978;21.464;2023-09-08T10:58:40;11.55;;;6.57;;
82705;SDS011;72428;41.978;21.464;2023-09-08T11:01:08;13.45;;;6.75;;
82705;SDS011;72428;41.978;21.464;2023-09-08T11:06:07;12.60;;;6.63;;
82705;SDS011;72428;41.978;21.464;2023-09-08T11:08:34;11.85;;;6.40;;
82705;SDS011;72428;41.978;21.464;2023-09-08T11:11:00;11.40;;;6.25;;
82705;SDS011;72428;41.978;21.464;2023-09-08T11:13:27;11.60;;;6.00;;
82705;SDS011;72428;41.978;21.464;2023-09-08T11:15:53;10.88;;;6.10;;
82705;SDS011;72428;41.978;21.464;2023-09-08T11:18:29;8.23;;;5.68;;
82705;SDS011;72428;41.978;21.464;2023-09-08T11:20:56;10.40;;;6.05;;
82705;SDS011;72428;41.978;21.464;2023-09-08T11:23:22;11.57;;;6.20;;
82705;SDS011;72428;41.978;21.464;2023-09-08T11:25:50;16.15;;;6.80;;
82705;SDS011;72428;41.978;21.464;2023-09-08T11:28:25;9.02;;;5.80;;
82705;SDS011;72428;41.978;21.464;2023-09-08T11:30:52;10.40;;;5.43;;
82705;SDS011;72428;41.978;21.464;2023-09-08T11:33:19;9.55;;;5.78;;
82705;SDS011;72428;41.978;21.464;2023-09-08T11:35:49;8.63;;;5.35;;
82705;SDS011;72428;41.978;21.464;2023-09-08T11:38:16;10.65;;;5.50;;
82705;SDS011;72428;41.978;21.464;2023-09-08T11:40:42;11.23;;;5.85;;
82705;SDS011;72428;41.978;21.464;2023-09-08T11:43:08;8.68;;;5.43;;
82705;SDS011;72428;41.978;21.464;2023-09-08T11:45:34;8.70;;;5.65;;
82705;SDS011;72428;41.978;21.464;2023-09-08T11:48:01;9.30;;;5.30;;
82705;SDS011;72428;41.978;21.464;2023-09-08T11:50:27;10.05;;;5.38;;
82705;SDS011;72428;41.978;21.464;2023-09-08T11:52:53;9.68;;;4.93;;
82705;SDS011;72428;41.978;21.464;2023-09-08T11:55:21;12.05;;;5.72;;
82705;SDS011;72428;41.978;21.464;2023-09-08T11:57:49;10.50;;;5.38;;
82705;SDS011;72428;41.978;21.464;2023-09-08T12:00:18;8.27;;;5.38;;
82705;SDS011;72428;41.978;21.464;2023-09-08T12:02:46;14.15;;;5.32;;
82705;SDS011;72428;41.978;21.464;2023-09-08T12:05:13;13.40;;;5.60;;
82705;SDS011;72428;41.978;21.464;2023-09-08T12:07:39;8.95;;;5.20;;
82705;SDS011;72428;41.978;21.464;2023-09-08T12:10:07;9.63;;;5.18;;
82705;SDS011;72428;41.978;21.464;2023-09-08T12:12:34;10.63;;;5.43;;
82705;SDS011;72428;41.978;21.464;2023-09-08T12:15:00;9.85;;;4.80;;
82705;SDS011;72428;41.978;21.464;2023-09-08T12:17:26;8.90;;;5.20;;
82705;SDS011;72428;41.978;21.464;2023-09-08T12:19:53;9.82;;;5.13;;
82705;SDS011;72428;41.978;21.464;2023-09-08T12:22:19;10.13;;;4.70;;
82705;SDS011;72428;41.978;21.464;2023-09-08T12:27:14;11.10;;;5.72;;
82705;SDS011;72428;41.978;21.464;2023-09-08T12:29:41;11.98;;;5.22;;
82705;SDS011;72428;41.978;21.464;2023-09-08T12:32:08;7.20;;;4.80;;
82705;SDS011;72428;41.978;21.464;2023-09-08T12:34:34;9.82;;;5.03;;
82705;SDS011;72428;41.978;21.464;2023-09-08T12:37:00;12.13;;;5.45;;
82705;SDS011;72428;41.978;21.464;2023-09-08T12:39:27;11.73;;;5.07;;
82705;SDS011;72428;41.978;21.464;2023-09-08T12:41:53;10.57;;;5.32;;
82705;SDS011;72428;41.978;21.464;2023-09-08T12:44:19;16.63;;;5.90;;
82705;SDS011;72428;41.978;21.464;2023-09-08T12:46:45;15.63;;;5.38;;
82705;SDS011;72428;41.978;21.464;2023-09-08T12:49:11;9.63;;;5.10;;
82705;SDS011;72428;41.978;21.464;2023-09-08T12:51:37;13.82;;;5.70;;
82705;SDS011;72428;41.978;21.464;2023-09-08T12:54:04;13.10;;;5.88;;
82705;SDS011;72428;41.978;21.464;2023-09-08T12:56:30;7.90;;;4.82;;
82705;SDS011;72428;41.978;21.464;2023-09-08T12:58:56;12.05;;;5.22;;
82705;SDS011;72428;41.978;21.464;2023-09-08T13:01:23;12.88;;;5.10;;
82705;SDS011;72428;41.978;21.464;2023-09-08T13:03:49;8.90;;;5.28;;
82705;SDS011;72428;41.978;21.464;2023-09-08T13:06:15;11.82;;;5.65;;
82705;SDS011;72428;41.978;21.464;2023-09-08T13:08:41;10.15;;;5.20;;
82705;SDS011;72428;41.978;21.464;2023-09-08T13:11:07;9.77;;;5.43;;
82705;SDS011;72428;41.978;21.464;2023-09-08T13:13:33;9.18;;;5.25;;
82705;SDS011;72428;41.978;21.464;2023-09-08T13:15:59;10.18;;;5.18;;
82705;SDS011;72428;41.978;21.464;2023-09-08T13:18:26;8.63;;;5.22;;
82705;SDS011;72428;41.978;21.464;2023-09-08T13:20:52;10.52;;;5.45;;
82705;SDS011;72428;41.978;21.464;2023-09-08T13:23:18;12.65;;;5.20;;
82705;SDS011;72428;41.978;21.464;2023-09-08T13:25:44;11.98;;;5.40;;
82705;SDS011;72428;41.978;21.464;2023-09-08T13:28:11;9.45;;;5.10;;
82705;SDS011;72428;41.978;21.464;2023-09-08T13:30:37;11.05;;;5.03;;
82705;SDS011;72428;41.978;21.464;2023-09-08T13:33:03;9.35;;;5.28;;
82705;SDS011;72428;41.978;21.464;2023-09-08T13:35:29;7.85;;;5.00;;
82705;SDS011;72428;41.978;21.464;2023-09-08T13:37:55;9.57;;;4.47;;
82705;SDS011;72428;41.978;21.464;2023-09-08T13:40:21;8.35;;;4.40;;
82705;SDS011;72428;41.978;21.464;2023-09-08T13:42:47;11.98;;;5.10;;
82705;SDS011;72428;41.978;21.464;2023-09-08T13:45:14;9.48;;;4.40;;
82705;SDS011;72428;41.978;21.464;2023-09-08T13:47:40;10.70;;;4.90;;
82705;SDS011;72428;41.978;21.464;2023-09-08T13:50:06;9.93;;;4.97;;
82705;SDS011;72428;41.978;21.464;2023-09-08T13:52:34;11.07;;;4.70;;
82705;SDS011;72428;41.978;21.464;2023-09-08T13:55:00;8.75;;;4.60;;
82705;SDS011;72428;41.978;21.464;2023-09-08T13:57:26;9.40;;;4.68;;
82705;SDS011;72428;41.978;21.464;2023-09-08T13:59:52;10.70;;;4.55;;
82705;SDS011;72428;41.978;21.464;2023-09-08T14:02:19;8.40;;;4.07;;
82705;SDS011;72428;41.978;21.464;2023-09-08T14:04:45;9.00;;;4.40;;
82705;SDS011;72428;41.978;21.464;2023-09-08T14:07:11;10.98;;;3.92;;
82705;SDS011;72428;41.978;21.464;2023-09-08T14:09:39;9.05;;;4.18;;
82705;SDS011;72428;41.978;21.464;2023-09-08T14:12:05;9.30;;;4.32;;
82705;SDS011;72428;41.978;21.464;2023-09-08T14:14:31;7.32;;;3.88;;
82705;SDS011;72428;41.978;21.464;2023-09-08T14:16:57;7.90;;;3.45;;
82705;SDS011;72428;41.978;21.464;2023-09-08T14:19:23;10.73;;;4.00;;
82705;SDS011;72428;41.978;21.464;2023-09-08T14:21:49;7.75;;;3.72;;
82705;SDS011;72428;41.978;21.464;2023-09-08T14:24:16;9.27;;;4.07;;
82705;SDS011;72428;41.978;21.464;2023-09-08T14:26:42;6.50;;;3.75;;
82705;SDS011;72428;41.978;21.464;2023-09-08T14:29:08;8.30;;;3.55;;
82705;SDS011;72428;41.978;21.464;2023-09-08T14:31:34;7.47;;;3.60;;
82705;SDS011;72428;41.978;21.464;2023-09-08T14:34:00;8.77;;;4.07;;
82705;SDS011;72428;41.978;21.464;2023-09-08T14:36:26;7.80;;;3.67;;
82705;SDS011;72428;41.978;21.464;2023-09-08T14:38:52;10.73;;;4.03;;